createdAt,value
2023-03-03T00:00:08.246Z,4.4
2023-03-03T00:01:11.966Z,4.4
2023-03-03T00:02:15.782Z,4.4
2023-03-03T00:03:19.007Z,4.4
2023-03-03T00:04:22.596Z,4.4
2023-03-03T00:05:26.739Z,4.4
2023-03-03T00:06:29.735Z,4.3
2023-03-03T00:07:32.914Z,4.3
2023-03-03T00:08:36.179Z,4.3
2023-03-03T00:09:40.151Z,4.3
2023-03-03T00:10:43.239Z,4.3
2023-03-03T00:11:46.234Z,4.3
2023-03-03T00:12:49.312Z,4.3
2023-03-03T00:13:51.931Z,4.3
2023-03-03T00:14:55.321Z,4.4
2023-03-03T00:15:58.001Z,4.4
2023-03-03T00:17:01.801Z,4.4
2023-03-03T00:18:04.504Z,4.3
2023-03-03T00:19:07.231Z,4.3
2023-03-03T00:20:10.387Z,4.3
2023-03-03T00:21:14.546Z,4.3
2023-03-03T00:22:17.559Z,4.3
2023-03-03T00:23:20.924Z,4.3
2023-03-03T00:24:24.009Z,4.3
2023-03-03T00:25:27.338Z,4.3
2023-03-03T00:26:31.071Z,4.3
2023-03-03T00:27:34.177Z,4.3
2023-03-03T00:28:37.566Z,4.3
2023-03-03T00:29:41.028Z,4.3
2023-03-03T00:30:45.035Z,4.3
2023-03-03T00:31:47.929Z,4.2
2023-03-03T00:32:51.767Z,4.3
2023-03-03T00:33:54.904Z,4.3
2023-03-03T00:34:58.077Z,4.3
2023-03-03T00:36:01.714Z,4.3
2023-03-03T00:37:05.623Z,4.3
2023-03-03T00:38:09.290Z,4.3
2023-03-03T00:39:12.107Z,4.3
2023-03-03T00:40:15.804Z,4.3
2023-03-03T00:41:18.529Z,4.3
2023-03-03T00:42:21.700Z,4.4
2023-03-03T00:43:25.714Z,4.4
2023-03-03T00:44:29.115Z,4.4
2023-03-03T00:45:32.590Z,4.4
2023-03-03T00:46:36.376Z,4.4
2023-03-03T00:47:40.027Z,4.4
2023-03-03T00:48:43.956Z,4.4
2023-03-03T00:49:46.945Z,4.4
2023-03-03T00:50:49.095Z,4.4
2023-03-03T00:51:51.886Z,4.5
2023-03-03T00:52:56.033Z,4.5
2023-03-03T00:53:59.368Z,4.5
2023-03-03T00:55:01.897Z,4.5
2023-03-03T00:56:04.444Z,4.5
2023-03-03T00:57:07.613Z,4.5
2023-03-03T00:58:11.141Z,4.5
2023-03-03T00:59:13.943Z,4.5
2023-03-03T01:00:17.046Z,4.6
2023-03-03T01:01:20.596Z,4.6
2023-03-03T01:02:24.151Z,4.6
2023-03-03T01:03:27.777Z,4.6
2023-03-03T01:04:31.527Z,4.6
2023-03-03T01:05:33.997Z,4.6
2023-03-03T01:06:37.066Z,4.6
2023-03-03T01:07:40.836Z,4.6
2023-03-03T01:08:45.043Z,4.6
2023-03-03T01:09:48.619Z,4.7
2023-03-03T01:10:51.833Z,4.7
2023-03-03T01:11:54.698Z,4.7
2023-03-03T01:12:57.758Z,4.7
2023-03-03T01:14:01.272Z,4.7
2023-03-03T01:15:04.898Z,4.7
2023-03-03T01:16:07.912Z,4.7
2023-03-03T01:17:11.704Z,4.7
2023-03-03T01:18:14.207Z,4.7
2023-03-03T01:19:17.298Z,4.8
2023-03-03T01:20:21.088Z,4.8
2023-03-03T01:21:23.515Z,4.8
2023-03-03T01:22:26.321Z,4.8
2023-03-03T01:23:29.414Z,4.8
2023-03-03T01:24:34.114Z,4.8
2023-03-03T01:25:37.101Z,4.8
2023-03-03T01:26:39.848Z,4.8
2023-03-03T01:27:42.843Z,4.8
2023-03-03T01:28:45.926Z,4.9
2023-03-03T01:29:48.084Z,4.9
2023-03-03T01:30:51.206Z,4.9
2023-03-03T01:31:54.471Z,4.9
2023-03-03T01:32:57.525Z,4.9
2023-03-03T01:34:00.255Z,4.9
2023-03-03T01:35:03.328Z,4.9
2023-03-03T01:36:05.893Z,4.9
2023-03-03T01:37:08.876Z,4.9
2023-03-03T01:38:12.214Z,4.9
2023-03-03T01:39:15.077Z,4.9
2023-03-03T01:40:19.022Z,4.9
2023-03-03T01:41:22.306Z,5
2023-03-03T01:42:25.674Z,5
2023-03-03T01:43:28.974Z,5
2023-03-03T01:44:33.093Z,5
2023-03-03T01:45:36.080Z,5
2023-03-03T01:46:39.175Z,5
2023-03-03T01:47:42.249Z,5
2023-03-03T01:48:45.021Z,5
2023-03-03T01:49:47.973Z,5
2023-03-03T01:50:50.972Z,5
2023-03-03T01:51:53.770Z,5
2023-03-03T01:52:56.573Z,5.1
2023-03-03T01:53:59.970Z,5.1
2023-03-03T01:55:03.212Z,5.1
2023-03-03T01:56:07.011Z,5.1
2023-03-03T01:57:10.342Z,5.1
2023-03-03T01:58:13.796Z,5.1
2023-03-03T01:59:16.603Z,5.1
2023-03-03T02:00:20.309Z,5.1
2023-03-03T02:01:23.433Z,5.1
2023-03-03T02:02:27.184Z,5.1
2023-03-03T02:03:30.457Z,5.1
2023-03-03T02:04:33.488Z,5.1
2023-03-03T02:05:35.955Z,5.1
2023-03-03T02:06:38.949Z,5.1
2023-03-03T02:07:42.423Z,5.1
2023-03-03T02:08:45.188Z,5.1
2023-03-03T02:09:48.356Z,5.1
2023-03-03T02:10:51.721Z,5.1
2023-03-03T02:11:56.028Z,5.1
2023-03-03T02:12:59.207Z,5.2
2023-03-03T02:14:02.614Z,5.1
2023-03-03T02:15:06.347Z,5.2
2023-03-03T02:16:09.995Z,5.2
2023-03-03T02:17:13.936Z,5.2
2023-03-03T02:18:17.033Z,5.2
2023-03-03T02:19:20.129Z,5.2
2023-03-03T02:20:22.944Z,5.2
2023-03-03T02:21:25.738Z,5.2
2023-03-03T02:22:29.443Z,5.2
2023-03-03T02:23:33.210Z,5.2
2023-03-03T02:24:36.356Z,5.2
2023-03-03T02:25:39.271Z,5.2
2023-03-03T02:26:42.372Z,5.2
2023-03-03T02:27:46.540Z,5.3
2023-03-03T02:28:49.801Z,5.2
2023-03-03T02:29:52.610Z,5.3
2023-03-03T02:30:55.950Z,5.3
2023-03-03T02:31:59.492Z,5.3
2023-03-03T02:33:03.003Z,5.2
2023-03-03T02:34:05.746Z,5.3
2023-03-03T02:35:08.492Z,5.3
2023-03-03T02:36:11.668Z,5.3
2023-03-03T02:37:14.836Z,5.3
2023-03-03T02:38:18.242Z,5.3
2023-03-03T02:39:21.545Z,5.3
2023-03-03T02:40:24.687Z,5.4
2023-03-03T02:41:27.414Z,5.4
2023-03-03T02:42:30.920Z,5.4
2023-03-03T02:43:34.750Z,5.4
2023-03-03T02:44:38.200Z,5.4
2023-03-03T02:45:41.761Z,5.4
2023-03-03T02:46:45.142Z,5.4
2023-03-03T02:47:47.731Z,5.4
2023-03-03T02:48:51.369Z,5.4
2023-03-03T02:49:54.448Z,5.4
2023-03-03T02:50:57.473Z,5.4
2023-03-03T02:52:00.277Z,5.4
2023-03-03T02:53:03.606Z,5.3
2023-03-03T02:54:06.494Z,5.3
2023-03-03T02:55:09.284Z,5.3
2023-03-03T02:56:13.011Z,5.3
2023-03-03T02:57:16.139Z,5.3
2023-03-03T02:58:19.534Z,5.3
2023-03-03T02:59:23.633Z,5.3
2023-03-03T03:00:27.075Z,5.3
2023-03-03T03:01:29.863Z,5.2
2023-03-03T03:02:32.317Z,5.2
2023-03-03T03:03:36.034Z,5.2
2023-03-03T03:04:39.364Z,5.2
2023-03-03T03:05:42.229Z,5.2
2023-03-03T03:06:45.617Z,5.2
2023-03-03T03:07:48.497Z,5.2
2023-03-03T03:08:51.962Z,5.2
2023-03-03T03:09:55.034Z,5.2
2023-03-03T03:10:58.058Z,5.2
2023-03-03T03:12:00.866Z,5.2
2023-03-03T03:13:04.245Z,5.2
2023-03-03T03:14:07.046Z,5.2
2023-03-03T03:15:11.212Z,5.2
2023-03-03T03:16:14.813Z,5.2
2023-03-03T03:17:17.958Z,5.2
2023-03-03T03:18:21.079Z,5.2
2023-03-03T03:19:24.130Z,5.2
2023-03-03T03:20:26.803Z,5.2
2023-03-03T03:21:29.878Z,5.2
2023-03-03T03:22:33.308Z,5.3
2023-03-03T03:23:37.035Z,5.2
2023-03-03T03:24:40.096Z,5.3
2023-03-03T03:25:43.184Z,5.2
2023-03-03T03:26:46.408Z,5.3
2023-03-03T03:27:49.860Z,5.2
2023-03-03T03:28:53.133Z,5.2
2023-03-03T03:29:56.452Z,5.2
2023-03-03T03:31:00.808Z,5.2
2023-03-03T03:32:05.011Z,5.2
2023-03-03T03:33:07.952Z,5.2
2023-03-03T03:34:11.064Z,5.2
2023-03-03T03:35:14.738Z,5.2
2023-03-03T03:36:17.781Z,5.2
2023-03-03T03:37:20.221Z,5.2
2023-03-03T03:38:23.905Z,5.2
2023-03-03T03:39:26.463Z,5.2
2023-03-03T03:40:29.300Z,5.2
2023-03-03T03:41:32.689Z,5.2
2023-03-03T03:42:36.031Z,5.2
2023-03-03T03:43:39.141Z,5.2
2023-03-03T03:44:42.328Z,5.2
2023-03-03T03:45:45.957Z,5.2
2023-03-03T03:46:49.975Z,5.2
2023-03-03T03:47:53.700Z,5.2
2023-03-03T03:48:56.684Z,5.2
2023-03-03T03:49:59.673Z,5.2
2023-03-03T03:51:03.004Z,5.2
2023-03-03T03:52:06.079Z,5.2
2023-03-03T03:53:09.815Z,5.2
2023-03-03T03:54:13.834Z,5.2
2023-03-03T03:55:16.914Z,5.2
2023-03-03T03:56:20.198Z,5.2
2023-03-03T03:57:26.979Z,5.2
2023-03-03T03:58:29.811Z,5.3
2023-03-03T03:59:32.897Z,5.2
2023-03-03T04:00:35.968Z,5.3
2023-03-03T04:01:40.114Z,5.3
2023-03-03T04:02:44.700Z,5.3
2023-03-03T04:03:48.225Z,5.3
2023-03-03T04:04:51.040Z,5.3
2023-03-03T04:05:54.136Z,5.3
2023-03-03T04:06:56.761Z,5.3
2023-03-03T04:08:00.018Z,5.3
2023-03-03T04:09:02.818Z,5.3
2023-03-03T04:10:05.340Z,5.3
2023-03-03T04:11:08.482Z,5.2
2023-03-03T04:12:11.184Z,5.2
2023-03-03T04:13:14.442Z,5.2
2023-03-03T04:14:17.549Z,5.2
2023-03-03T04:15:21.195Z,5.2
2023-03-03T04:16:24.289Z,5.2
2023-03-03T04:17:27.435Z,5.1
2023-03-03T04:18:31.260Z,5
2023-03-03T04:19:33.503Z,5
2023-03-03T04:20:37.229Z,5
2023-03-03T04:21:40.248Z,5
2023-03-03T04:22:43.866Z,4.9
2023-03-03T04:23:47.355Z,4.9
2023-03-03T04:24:50.799Z,4.9
2023-03-03T04:25:53.684Z,4.9
2023-03-03T04:26:57.041Z,4.9
2023-03-03T04:27:59.804Z,4.9
2023-03-03T04:29:02.649Z,4.9
2023-03-03T04:30:05.374Z,4.8
2023-03-03T04:31:08.731Z,4.9
2023-03-03T04:32:12.422Z,4.9
2023-03-03T04:33:15.649Z,4.9
2023-03-03T04:34:19.775Z,4.9
2023-03-03T04:35:23.440Z,4.8
2023-03-03T04:36:27.328Z,4.9
2023-03-03T04:37:31.008Z,4.9
2023-03-03T04:38:34.633Z,4.9
2023-03-03T04:39:38.080Z,4.9
2023-03-03T04:40:42.351Z,4.8
2023-03-03T04:41:45.791Z,4.8
2023-03-03T04:42:49.578Z,4.9
2023-03-03T04:43:53.002Z,4.8
2023-03-03T04:44:55.703Z,4.8
2023-03-03T04:45:58.569Z,4.8
2023-03-03T04:47:01.460Z,4.8
2023-03-03T04:48:04.466Z,4.8
2023-03-03T04:49:12.802Z,4.8
2023-03-03T04:50:16.615Z,4.8
2023-03-03T04:51:19.477Z,4.8
2023-03-03T04:52:21.646Z,4.8
2023-03-03T04:53:24.131Z,4.8
2023-03-03T04:54:27.675Z,4.8
2023-03-03T04:55:30.376Z,4.8
2023-03-03T04:56:33.073Z,4.8
2023-03-03T04:57:36.872Z,4.8
2023-03-03T04:58:40.143Z,4.8
2023-03-03T04:59:43.347Z,4.8
2023-03-03T05:00:45.798Z,4.7
2023-03-03T05:01:48.300Z,4.7
2023-03-03T05:02:52.193Z,4.7
2023-03-03T05:03:55.818Z,4.7
2023-03-03T05:04:59.158Z,4.6
2023-03-03T05:06:03.530Z,4.6
2023-03-03T05:07:06.107Z,4.6
2023-03-03T05:08:09.833Z,4.6
2023-03-03T05:09:13.188Z,4.6
2023-03-03T05:10:16.936Z,4.6
2023-03-03T05:11:20.668Z,4.6
2023-03-03T05:12:23.450Z,4.5
2023-03-03T05:13:26.475Z,4.5
2023-03-03T05:14:29.650Z,4.5
2023-03-03T05:15:32.771Z,4.4
2023-03-03T05:16:35.226Z,4.4
2023-03-03T05:17:38.583Z,4.4
2023-03-03T05:18:41.672Z,4.4
2023-03-03T05:19:45.004Z,4.4
2023-03-03T05:20:48.703Z,4.4
2023-03-03T05:21:53.480Z,4.3
2023-03-03T05:22:56.472Z,4.3
2023-03-03T05:23:59.352Z,4.3
2023-03-03T05:25:02.642Z,4.3
2023-03-03T05:26:05.656Z,4.3
2023-03-03T05:27:09.030Z,4.3
2023-03-03T05:28:11.843Z,4.3
2023-03-03T05:29:14.706Z,4.2
2023-03-03T05:30:17.225Z,4.2
2023-03-03T05:31:20.337Z,4.2
2023-03-03T05:32:24.180Z,4.1
2023-03-03T05:33:28.117Z,4.1
2023-03-03T05:34:31.000Z,4.1
2023-03-03T05:35:34.067Z,4.1
2023-03-03T05:36:37.982Z,4.1
2023-03-03T05:37:41.791Z,4.1
2023-03-03T05:38:45.185Z,4.2
2023-03-03T05:39:48.537Z,4.1
2023-03-03T05:40:52.034Z,4.2
2023-03-03T05:41:55.742Z,4.2
2023-03-03T05:42:58.665Z,4.2
2023-03-03T05:44:01.756Z,4.2
2023-03-03T05:45:05.523Z,4.2
2023-03-03T05:46:08.956Z,4.3
2023-03-03T05:47:12.495Z,4.2
2023-03-03T05:48:16.773Z,4.3
2023-03-03T05:49:19.827Z,4.2
2023-03-03T05:50:22.550Z,4.2
2023-03-03T05:51:26.278Z,4.3
2023-03-03T05:52:29.668Z,4.2
2023-03-03T05:53:33.725Z,4.3
2023-03-03T05:54:37.159Z,4.2
2023-03-03T05:55:40.265Z,4.2
2023-03-03T05:56:43.317Z,4.3
2023-03-03T05:57:45.772Z,4.3
2023-03-03T05:58:48.793Z,4.3
2023-03-03T05:59:52.250Z,4.2
2023-03-03T06:00:55.668Z,4.2
2023-03-03T06:01:59.279Z,4.2
2023-03-03T06:03:02.742Z,4.2
2023-03-03T06:04:05.606Z,4.2
2023-03-03T06:05:08.848Z,4.2
2023-03-03T06:06:11.983Z,4.2
2023-03-03T06:07:14.850Z,4.2
2023-03-03T06:08:18.094Z,4.2
2023-03-03T06:09:22.009Z,4.2
2023-03-03T06:10:25.075Z,4.2
2023-03-03T06:11:28.594Z,4.2
2023-03-03T06:12:31.695Z,4.2
2023-03-03T06:13:35.045Z,4.2
2023-03-03T06:14:37.360Z,4.2
2023-03-03T06:15:40.880Z,4.2
2023-03-03T06:16:44.801Z,4.2
2023-03-03T06:17:48.504Z,4.2
2023-03-03T06:18:51.020Z,4.2
2023-03-03T06:19:54.375Z,4.2
2023-03-03T06:20:57.179Z,4.2
2023-03-03T06:22:01.809Z,4.2
2023-03-03T06:23:05.489Z,4.2
2023-03-03T06:24:08.966Z,4.2
2023-03-03T06:25:13.052Z,4.2
2023-03-03T06:26:16.009Z,4.2
2023-03-03T06:27:19.642Z,4.2
2023-03-03T06:28:23.291Z,4.2
2023-03-03T06:29:27.090Z,4.2
2023-03-03T06:30:29.800Z,4.2
2023-03-03T06:31:33.334Z,4.2
2023-03-03T06:32:37.106Z,4.2
2023-03-03T06:33:40.317Z,4.2
2023-03-03T06:34:43.975Z,4.2
2023-03-03T06:35:47.433Z,4.2
2023-03-03T06:36:50.566Z,4.2
2023-03-03T06:37:53.729Z,4.2
2023-03-03T06:38:56.814Z,4.2
2023-03-03T06:40:00.949Z,4.1
2023-03-03T06:41:05.093Z,4.1
2023-03-03T06:42:07.809Z,4.1
2023-03-03T06:43:10.526Z,4.1
2023-03-03T06:44:12.731Z,4
2023-03-03T06:45:15.762Z,4
2023-03-03T06:46:19.107Z,4
2023-03-03T06:47:21.890Z,4
2023-03-03T06:48:25.324Z,4
2023-03-03T06:49:28.343Z,4
2023-03-03T06:50:31.728Z,4
2023-03-03T06:51:35.505Z,4
2023-03-03T06:52:39.150Z,4
2023-03-03T06:53:41.937Z,4
2023-03-03T06:54:44.660Z,4
2023-03-03T06:55:47.455Z,3.9
2023-03-03T06:56:51.254Z,3.9
2023-03-03T06:57:54.939Z,3.9
2023-03-03T06:58:57.931Z,3.9
2023-03-03T07:00:00.630Z,3.9
2023-03-03T07:01:03.795Z,3.9
2023-03-03T07:02:07.350Z,3.9
2023-03-03T07:03:10.060Z,4
2023-03-03T07:04:13.121Z,4
2023-03-03T07:05:16.056Z,3.9
2023-03-03T07:06:18.951Z,4
2023-03-03T07:07:21.668Z,4
2023-03-03T07:08:24.727Z,4
2023-03-03T07:09:27.790Z,4
2023-03-03T07:10:30.988Z,4
2023-03-03T07:11:34.035Z,4
2023-03-03T07:12:38.134Z,4
2023-03-03T07:13:41.043Z,4
2023-03-03T07:14:44.054Z,4
2023-03-03T07:15:46.874Z,4
2023-03-03T07:16:49.728Z,4
2023-03-03T07:17:53.185Z,4.1
2023-03-03T07:18:56.552Z,4.1
2023-03-03T07:20:00.600Z,4.1
2023-03-03T07:21:03.485Z,4.1
2023-03-03T07:22:06.567Z,4.1
2023-03-03T07:23:09.998Z,4.1
2023-03-03T07:24:13.331Z,4.2
2023-03-03T07:25:16.764Z,4.2
2023-03-03T07:26:20.144Z,4.2
2023-03-03T07:27:23.278Z,4.2
2023-03-03T07:28:27.389Z,4.2
2023-03-03T07:29:30.788Z,4.2
2023-03-03T07:30:34.750Z,4.2
2023-03-03T07:31:37.628Z,4.2
2023-03-03T07:32:40.091Z,4.2
2023-03-03T07:33:43.094Z,4.2
2023-03-03T07:34:45.711Z,4.2
2023-03-03T07:35:49.063Z,4.2
2023-03-03T07:36:52.979Z,4.2
2023-03-03T07:37:57.085Z,4.1
2023-03-03T07:39:00.920Z,4.1
2023-03-03T07:40:04.311Z,4.1
2023-03-03T07:41:07.910Z,4.1
2023-03-03T07:42:11.395Z,4
2023-03-03T07:43:15.102Z,4.1
2023-03-03T07:44:19.193Z,4
2023-03-03T07:45:22.799Z,4
2023-03-03T07:46:26.076Z,4
2023-03-03T07:47:29.334Z,3.9
2023-03-03T07:48:32.335Z,3.9
2023-03-03T07:49:35.033Z,3.9
2023-03-03T07:50:38.493Z,3.9
2023-03-03T07:51:42.259Z,3.9
2023-03-03T07:52:45.745Z,3.9
2023-03-03T07:53:49.447Z,3.9
2023-03-03T07:54:52.740Z,3.9
2023-03-03T07:55:56.088Z,3.9
2023-03-03T07:56:58.805Z,4
2023-03-03T07:58:02.300Z,4
2023-03-03T07:59:05.698Z,4
2023-03-03T08:00:09.854Z,4
2023-03-03T08:01:13.538Z,4
2023-03-03T08:02:16.533Z,4
2023-03-03T08:03:18.751Z,4
2023-03-03T08:04:23.216Z,4
2023-03-03T08:05:27.254Z,4.1
2023-03-03T08:06:30.561Z,4.1
2023-03-03T08:07:33.560Z,4.1
2023-03-03T08:08:36.632Z,4.2
2023-03-03T08:09:39.864Z,4.2
2023-03-03T08:10:44.410Z,4.2
2023-03-03T08:11:48.283Z,4.2
2023-03-03T08:12:51.506Z,4.2
2023-03-03T08:13:54.130Z,4.2
2023-03-03T08:14:57.869Z,4.2
2023-03-03T08:16:02.265Z,4.2
2023-03-03T08:17:05.438Z,4.2
2023-03-03T08:18:09.102Z,4.2
2023-03-03T08:19:12.490Z,4.2
2023-03-03T08:20:15.558Z,4.3
2023-03-03T08:21:18.270Z,4.2
2023-03-03T08:22:21.333Z,4.3
2023-03-03T08:23:24.081Z,4.3
2023-03-03T08:24:26.812Z,4.3
2023-03-03T08:25:30.206Z,4.2
2023-03-03T08:26:34.233Z,4.3
2023-03-03T08:27:37.303Z,4.3
2023-03-03T08:28:40.403Z,4.4
2023-03-03T08:29:43.481Z,4.4
2023-03-03T08:30:48.122Z,4.4
2023-03-03T08:31:52.694Z,4.4
2023-03-03T08:32:56.899Z,4.4
2023-03-03T08:33:59.503Z,4.4
2023-03-03T08:35:01.957Z,4.4
2023-03-03T08:36:04.936Z,4.4
2023-03-03T08:37:09.353Z,4.5
2023-03-03T08:38:12.758Z,4.4
2023-03-03T08:39:16.301Z,4.4
2023-03-03T08:40:20.299Z,4.4
2023-03-03T08:41:23.637Z,4.4
2023-03-03T08:42:26.081Z,4.4
2023-03-03T08:43:29.369Z,4.4
2023-03-03T08:44:32.447Z,4.4
2023-03-03T08:45:35.844Z,4.4
2023-03-03T08:46:39.366Z,4.4
2023-03-03T08:47:43.130Z,4.5
2023-03-03T08:48:46.861Z,4.4
2023-03-03T08:49:50.324Z,4.4
2023-03-03T08:50:53.146Z,4.5
2023-03-03T08:51:56.208Z,4.5
2023-03-03T08:52:59.641Z,4.5
2023-03-03T08:54:03.182Z,4.5
2023-03-03T08:55:09.615Z,4.6
2023-03-03T08:56:12.956Z,4.6
2023-03-03T08:57:16.708Z,4.6
2023-03-03T08:58:22.344Z,4.6
2023-03-03T08:59:39.257Z,4.6
2023-03-03T09:00:42.791Z,4.7
2023-03-03T09:01:46.424Z,4.7
2023-03-03T09:02:51.026Z,4.6
2023-03-03T09:03:54.713Z,4.6
2023-03-03T09:04:58.421Z,4.7
2023-03-03T09:06:01.480Z,4.6
2023-03-03T09:07:04.353Z,4.7
2023-03-03T09:08:07.349Z,4.7
2023-03-03T09:09:10.089Z,4.7
2023-03-03T09:10:13.439Z,4.7
2023-03-03T09:11:16.565Z,4.7
2023-03-03T09:12:19.788Z,4.7
2023-03-03T09:13:23.160Z,4.7
2023-03-03T09:14:26.034Z,4.8
2023-03-03T09:15:29.707Z,4.8
2023-03-03T09:16:33.325Z,4.8
2023-03-03T09:17:37.055Z,4.8
2023-03-03T09:18:41.211Z,4.9
2023-03-03T09:19:44.668Z,4.9
2023-03-03T09:20:48.044Z,4.9
2023-03-03T09:21:51.403Z,5
2023-03-03T09:22:55.041Z,5
2023-03-03T09:23:58.526Z,5
2023-03-03T09:25:01.900Z,5
2023-03-03T09:26:05.259Z,5
2023-03-03T09:27:08.057Z,5
2023-03-03T09:28:11.122Z,5.1
2023-03-03T09:29:14.545Z,5.1
2023-03-03T09:30:18.050Z,5.1
2023-03-03T09:31:21.519Z,5
2023-03-03T09:32:25.095Z,5
2023-03-03T09:33:28.994Z,5
2023-03-03T09:34:33.001Z,5
2023-03-03T09:35:35.906Z,5
2023-03-03T09:36:39.347Z,4.9
2023-03-03T09:37:41.799Z,4.9
2023-03-03T09:38:44.900Z,4.9
2023-03-03T09:39:47.970Z,4.9
2023-03-03T09:40:51.700Z,4.9
2023-03-03T09:41:54.707Z,4.9
2023-03-03T09:42:58.084Z,4.9
2023-03-03T09:44:00.853Z,4.9
2023-03-03T09:45:04.253Z,4.9
2023-03-03T09:46:07.763Z,4.9
2023-03-03T09:47:10.571Z,5
2023-03-03T09:48:14.289Z,5
2023-03-03T09:49:17.820Z,5
2023-03-03T09:50:21.647Z,5
2023-03-03T09:51:24.155Z,5
2023-03-03T09:52:27.963Z,5.1
2023-03-03T09:53:31.073Z,5.1
2023-03-03T09:54:34.455Z,5.1
2023-03-03T09:55:38.294Z,5.1
2023-03-03T09:56:41.663Z,5.2
2023-03-03T09:57:44.600Z,5.2
2023-03-03T09:58:47.901Z,5.2
2023-03-03T09:59:51.245Z,5.3
2023-03-03T10:00:54.607Z,5.3
2023-03-03T10:01:58.684Z,5.3
2023-03-03T10:03:01.767Z,5.3
2023-03-03T10:04:04.869Z,5.3
2023-03-03T10:05:08.529Z,5.3
2023-03-03T10:06:12.622Z,5.3
2023-03-03T10:07:15.400Z,5.4
2023-03-03T10:08:18.590Z,5.4
2023-03-03T10:09:21.675Z,5.4
2023-03-03T10:10:24.929Z,5.4
2023-03-03T10:11:27.743Z,5.4
2023-03-03T10:12:30.570Z,5.4
2023-03-03T10:13:34.035Z,5.4
2023-03-03T10:14:37.030Z,5.4
2023-03-03T10:15:39.956Z,5.3
2023-03-03T10:16:43.432Z,5.4
2023-03-03T10:17:47.475Z,5.4
2023-03-03T10:18:52.035Z,5.3
2023-03-03T10:19:55.786Z,5.3
2023-03-03T10:20:59.520Z,5.3
2023-03-03T10:22:03.638Z,5.3
2023-03-03T10:23:07.025Z,5.3
2023-03-03T10:24:09.826Z,5.3
2023-03-03T10:25:13.273Z,5.3
2023-03-03T10:26:15.986Z,5.3
2023-03-03T10:27:19.157Z,5.3
2023-03-03T10:28:22.814Z,5.3
2023-03-03T10:29:25.816Z,5.3
2023-03-03T10:31:04.974Z,5.3
2023-03-03T10:32:30.584Z,5.3
2023-03-03T10:33:35.465Z,5.3
2023-03-03T10:34:39.406Z,5.3
2023-03-03T10:35:45.639Z,5.3
2023-03-03T10:37:11.313Z,5.3
2023-03-03T10:38:15.422Z,5.3
2023-03-03T10:39:18.825Z,5.3
2023-03-03T10:40:22.223Z,5.3
2023-03-03T10:41:25.860Z,5.3
2023-03-03T10:42:28.655Z,5.3
2023-03-03T10:43:33.466Z,5.3
2023-03-03T10:44:37.501Z,5.4
2023-03-03T10:45:40.751Z,5.4
2023-03-03T10:46:44.410Z,5.4
2023-03-03T10:47:48.074Z,5.4
2023-03-03T10:48:51.456Z,5.4
2023-03-03T10:49:55.438Z,5.4
2023-03-03T10:51:00.073Z,5.4
2023-03-03T10:52:04.060Z,5.3
2023-03-03T10:53:08.037Z,5.3
2023-03-03T10:54:11.762Z,5.3
2023-03-03T10:55:14.914Z,5.3
2023-03-03T10:56:17.620Z,5.3
2023-03-03T10:57:21.230Z,5.3
2023-03-03T10:58:24.443Z,5.3
2023-03-03T10:59:27.612Z,5.3
2023-03-03T11:00:30.775Z,5.4
2023-03-03T11:01:34.386Z,5.4
2023-03-03T11:02:38.622Z,5.5
2023-03-03T11:03:41.652Z,5.5
2023-03-03T11:04:44.951Z,5.6
2023-03-03T11:05:48.567Z,5.6
2023-03-03T11:06:52.610Z,5.7
2023-03-03T11:07:55.691Z,5.7
2023-03-03T11:09:00.940Z,5.7
2023-03-03T11:10:05.192Z,5.7
2023-03-03T11:11:08.552Z,5.7
2023-03-03T11:12:11.052Z,5.7
2023-03-03T11:13:14.800Z,5.7
2023-03-03T11:14:17.891Z,5.7
2023-03-03T11:15:20.983Z,5.8
2023-03-03T11:16:24.029Z,5.8
2023-03-03T11:17:27.650Z,5.8
2023-03-03T11:18:31.035Z,5.8
2023-03-03T11:19:35.388Z,5.8
2023-03-03T11:20:37.846Z,5.8
2023-03-03T11:21:41.855Z,5.8
2023-03-03T11:22:45.050Z,5.9
2023-03-03T11:23:48.664Z,5.9
2023-03-03T11:24:52.797Z,5.9
2023-03-03T11:25:56.686Z,5.9
2023-03-03T11:27:00.103Z,6
2023-03-03T11:28:03.559Z,6
2023-03-03T11:29:07.041Z,6
2023-03-03T11:30:10.762Z,6
2023-03-03T11:31:14.330Z,6
2023-03-03T11:32:17.863Z,6
2023-03-03T11:33:21.136Z,6
2023-03-03T11:34:24.395Z,6
2023-03-03T11:35:27.332Z,6
2023-03-03T11:36:31.292Z,6
2023-03-03T11:37:37.830Z,6
2023-03-03T11:38:40.701Z,6
2023-03-03T11:39:43.902Z,6
2023-03-03T11:40:47.775Z,6
2023-03-03T11:41:51.486Z,6.1
2023-03-03T11:42:54.305Z,6.1
2023-03-03T11:43:57.021Z,6.1
2023-03-03T11:45:00.130Z,6.1
2023-03-03T11:46:03.919Z,6.1
2023-03-03T11:47:07.243Z,6.2
2023-03-03T11:48:10.031Z,6.2
2023-03-03T11:49:13.476Z,6.2
2023-03-03T11:50:16.273Z,6.2
2023-03-03T11:51:19.903Z,6.2
2023-03-03T11:52:23.005Z,6.2
2023-03-03T11:53:25.761Z,6.2
2023-03-03T11:54:28.878Z,6.2
2023-03-03T11:55:32.654Z,6.3
2023-03-03T11:56:36.582Z,6.2
2023-03-03T11:57:39.864Z,6.3
2023-03-03T11:58:43.558Z,6.3
2023-03-03T11:59:46.952Z,6.3
2023-03-03T12:00:49.812Z,6.3
2023-03-03T12:01:53.453Z,6.3
2023-03-03T12:02:57.224Z,6.3
2023-03-03T12:04:01.176Z,6.2
2023-03-03T12:05:04.901Z,6.2
2023-03-03T12:06:12.644Z,6.1
2023-03-03T12:07:20.660Z,6.1
2023-03-03T12:08:24.316Z,6.1
2023-03-03T12:09:27.475Z,6.1
2023-03-03T12:10:30.922Z,6.1
2023-03-03T12:11:34.646Z,6.1
2023-03-03T12:12:38.811Z,6
2023-03-03T12:13:42.566Z,6
2023-03-03T12:14:45.560Z,6
2023-03-03T12:15:49.334Z,6
2023-03-03T12:16:52.592Z,6
2023-03-03T12:17:55.873Z,6
2023-03-03T12:18:58.701Z,6
2023-03-03T12:20:01.808Z,6
2023-03-03T12:21:05.197Z,6
2023-03-03T12:22:08.048Z,6
2023-03-03T12:23:11.412Z,6
2023-03-03T12:24:14.854Z,6
2023-03-03T12:25:17.349Z,6
2023-03-03T12:26:20.565Z,6
2023-03-03T12:27:24.342Z,6
2023-03-03T12:28:28.498Z,6.1
2023-03-03T12:29:31.948Z,6.1
2023-03-03T12:30:35.055Z,6.1
2023-03-03T12:31:38.417Z,6.1
2023-03-03T12:32:41.757Z,6.1
2023-03-03T12:33:45.202Z,6.2
2023-03-03T12:34:48.739Z,6.2
2023-03-03T12:35:52.257Z,6.2
2023-03-03T12:36:55.239Z,6.3
2023-03-03T12:37:58.227Z,6.3
2023-03-03T12:39:01.878Z,6.4
2023-03-03T12:40:04.942Z,6.4
2023-03-03T12:41:08.044Z,6.4
2023-03-03T12:42:11.743Z,6.5
2023-03-03T12:43:14.997Z,6.5
2023-03-03T12:44:19.193Z,6.4
2023-03-03T12:45:22.888Z,6.4
2023-03-03T12:46:30.473Z,6.5
2023-03-03T12:47:34.360Z,6.4
2023-03-03T12:48:37.407Z,6.5
2023-03-03T12:49:57.851Z,6.4
2023-03-03T12:51:14.187Z,6.4
2023-03-03T12:52:18.203Z,6.4
2023-03-03T12:53:21.294Z,6.4
2023-03-03T12:54:24.492Z,6.4
2023-03-03T12:55:28.575Z,6.5
2023-03-03T12:56:32.288Z,6.5
2023-03-03T12:57:35.341Z,6.5
2023-03-03T12:58:38.675Z,6.5
2023-03-03T12:59:42.708Z,6.6
2023-03-03T13:00:46.060Z,6.6
2023-03-03T13:01:50.292Z,6.7
2023-03-03T13:02:53.168Z,6.7
2023-03-03T13:03:57.446Z,6.7
2023-03-03T13:05:00.660Z,6.8
2023-03-03T13:06:03.577Z,6.8
2023-03-03T13:07:06.332Z,6.8
2023-03-03T13:08:10.222Z,6.8
2023-03-03T13:09:13.416Z,6.8
2023-03-03T13:10:16.496Z,6.7
2023-03-03T13:11:19.966Z,6.8
2023-03-03T13:12:23.332Z,6.8
2023-03-03T13:13:27.040Z,6.8
2023-03-03T13:14:30.138Z,6.7
2023-03-03T13:15:39.736Z,6.7
2023-03-03T13:17:00.277Z,6.7
2023-03-03T13:18:04.160Z,6.7
2023-03-03T13:19:06.660Z,6.7
2023-03-03T13:20:09.482Z,6.8
2023-03-03T13:21:12.563Z,6.8
2023-03-03T13:22:15.948Z,6.8
2023-03-03T13:23:18.761Z,6.8
2023-03-03T13:24:22.269Z,6.8
2023-03-03T13:25:25.144Z,6.8
2023-03-03T13:26:31.998Z,6.9
2023-03-03T13:27:35.100Z,6.9
2023-03-03T13:28:38.170Z,6.9
2023-03-03T13:29:41.105Z,6.9
2023-03-03T13:30:45.069Z,6.9
2023-03-03T13:31:48.580Z,6.9
2023-03-03T13:32:52.335Z,6.9
2023-03-03T13:33:55.437Z,6.9
2023-03-03T13:34:58.518Z,6.9
2023-03-03T13:36:01.869Z,6.9
2023-03-03T13:37:05.268Z,6.9
2023-03-03T13:38:08.263Z,6.8
2023-03-03T13:39:11.149Z,6.8
2023-03-03T13:40:14.510Z,6.8
2023-03-03T13:41:17.996Z,6.8
2023-03-03T13:42:21.391Z,6.8
2023-03-03T13:43:24.417Z,6.8
2023-03-03T13:44:27.614Z,6.8
2023-03-03T13:45:31.042Z,6.8
2023-03-03T13:46:36.812Z,6.8
2023-03-03T13:47:39.813Z,6.8
2023-03-03T13:48:43.158Z,6.8
2023-03-03T13:49:48.737Z,6.8
2023-03-03T13:50:52.081Z,6.8
2023-03-03T13:51:55.156Z,6.8
2023-03-03T13:52:58.607Z,6.8
2023-03-03T13:54:02.249Z,6.8
2023-03-03T13:55:05.346Z,6.8
2023-03-03T13:56:08.814Z,6.8
2023-03-03T13:57:12.147Z,6.8
2023-03-03T13:58:15.934Z,6.9
2023-03-03T13:59:19.055Z,6.9
2023-03-03T14:00:21.884Z,6.9
2023-03-03T14:01:25.206Z,6.9
2023-03-03T14:02:29.421Z,6.9
2023-03-03T14:03:32.859Z,6.9
2023-03-03T14:04:36.239Z,6.9
2023-03-03T14:05:39.861Z,6.9
2023-03-03T14:06:42.879Z,6.9
2023-03-03T14:07:45.696Z,6.9
2023-03-03T14:08:48.511Z,6.9
2023-03-03T14:09:51.869Z,6.9
2023-03-03T14:10:55.322Z,6.9
2023-03-03T14:11:58.715Z,6.8
2023-03-03T14:13:02.294Z,6.8
2023-03-03T14:14:05.101Z,6.8
2023-03-03T14:15:08.530Z,6.8
2023-03-03T14:16:11.979Z,6.8
2023-03-03T14:17:16.086Z,6.8
2023-03-03T14:18:20.346Z,6.8
2023-03-03T14:19:23.494Z,6.8
2023-03-03T14:20:26.987Z,6.8
2023-03-03T14:21:30.434Z,6.8
2023-03-03T14:22:33.781Z,6.8
2023-03-03T14:23:36.810Z,6.8
2023-03-03T14:24:39.856Z,6.8
2023-03-03T14:25:42.561Z,6.8
2023-03-03T14:26:46.276Z,6.8
2023-03-03T14:27:49.778Z,6.8
2023-03-03T14:28:53.124Z,6.8
2023-03-03T14:29:55.705Z,6.8
2023-03-03T14:31:00.250Z,6.8
2023-03-03T14:32:05.773Z,6.8
2023-03-03T14:33:09.520Z,6.8
2023-03-03T14:34:13.318Z,6.8
2023-03-03T14:35:16.634Z,6.8
2023-03-03T14:36:20.037Z,6.8
2023-03-03T14:37:23.411Z,6.8
2023-03-03T14:38:26.842Z,6.8
2023-03-03T14:39:29.639Z,6.8
2023-03-03T14:40:32.644Z,6.8
2023-03-03T14:41:36.271Z,6.8